createdAt,value
2022-10-29T00:02:05.250Z,13.90
2022-10-29T00:04:34.574Z,12.68
2022-10-29T00:07:03.629Z,13.65
2022-10-29T00:09:32.692Z,14.45
2022-10-29T00:12:01.794Z,15.18
2022-10-29T00:14:30.894Z,15.93
2022-10-29T00:16:59.976Z,15.77
2022-10-29T00:19:30.493Z,15.55
2022-10-29T00:21:59.506Z,15.05
2022-10-29T00:24:28.649Z,14.48
2022-10-29T00:26:57.738Z,14.20
2022-10-29T00:29:26.957Z,14.07
2022-10-29T00:31:56.151Z,13.50
2022-10-29T00:34:25.235Z,15.50
2022-10-29T00:36:55.688Z,15.90
2022-10-29T00:39:24.787Z,16.15
2022-10-29T00:41:53.963Z,17.27
2022-10-29T00:44:32.473Z,16.27
2022-10-29T00:47:12.899Z,16.80
2022-10-29T00:49:43.885Z,15.43
2022-10-29T00:52:16.787Z,16.92
2022-10-29T00:54:47.952Z,18.13
2022-10-29T00:57:22.710Z,16.98
2022-10-29T00:59:52.012Z,16.35
2022-10-29T01:02:22.650Z,16.27
2022-10-29T01:04:53.480Z,17.60
2022-10-29T01:07:24.268Z,17.35
2022-10-29T01:09:53.439Z,22.52
2022-10-29T01:12:55.601Z,22.70
2022-10-29T01:15:34.862Z,23.40
2022-10-29T01:18:19.027Z,19.60
2022-10-29T01:21:42.751Z,18.92
2022-10-29T01:24:55.443Z,16.40
2022-10-29T01:28:00.955Z,16.58
2022-10-29T01:31:10.971Z,14.50
2022-10-29T01:33:49.629Z,14.10
2022-10-29T01:36:29.009Z,14.00
2022-10-29T01:39:08.801Z,17.08
2022-10-29T01:41:49.235Z,14.68
2022-10-29T01:44:35.015Z,16.63
2022-10-29T01:47:07.858Z,15.80
2022-10-29T01:49:41.612Z,17.48
2022-10-29T01:52:14.828Z,19.58
2022-10-29T01:54:45.790Z,17.42
2022-10-29T01:57:30.507Z,17.88
2022-10-29T02:00:03.824Z,16.67
2022-10-29T02:03:04.863Z,18.05
2022-10-29T02:05:39.568Z,19.10
2022-10-29T02:08:22.452Z,20.50
2022-10-29T02:11:01.993Z,21.90
2022-10-29T02:13:36.910Z,21.95
2022-10-29T02:16:09.432Z,21.48
2022-10-29T02:18:44.271Z,23.02
2022-10-29T02:21:17.228Z,21.10
2022-10-29T02:23:47.202Z,23.13
2022-10-29T02:26:16.431Z,21.25
2022-10-29T02:28:45.657Z,22.88
2022-10-29T02:31:14.799Z,22.70
2022-10-29T02:33:45.654Z,21.55
2022-10-29T02:36:14.669Z,23.63
2022-10-29T02:38:43.703Z,22.23
2022-10-29T02:41:12.843Z,21.83
2022-10-29T02:43:41.907Z,23.08
2022-10-29T02:46:17.325Z,23.85
2022-10-29T02:48:48.305Z,28.05
2022-10-29T02:51:18.712Z,26.23
2022-10-29T02:53:47.907Z,22.00
2022-10-29T02:56:17.076Z,23.33
2022-10-29T02:58:46.218Z,24.42
2022-10-29T03:01:15.381Z,21.65
2022-10-29T03:03:44.476Z,28.40
2022-10-29T03:06:16.453Z,23.40
2022-10-29T03:08:46.119Z,23.15
2022-10-29T03:11:15.530Z,20.75
2022-10-29T03:13:44.650Z,21.50
2022-10-29T03:16:13.778Z,22.95
2022-10-29T03:18:42.841Z,22.83
2022-10-29T03:21:11.861Z,19.48
2022-10-29T03:23:42.437Z,18.63
2022-10-29T03:26:11.991Z,19.88
2022-10-29T03:28:41.026Z,18.83
2022-10-29T03:31:10.314Z,17.58
2022-10-29T03:33:39.351Z,18.42
2022-10-29T03:36:09.936Z,18.50
2022-10-29T03:38:39.125Z,16.80
2022-10-29T03:41:11.029Z,18.92
2022-10-29T03:43:41.209Z,19.00
2022-10-29T03:46:10.654Z,18.45
2022-10-29T03:48:39.893Z,18.63
2022-10-29T03:51:09.043Z,18.33
2022-10-29T03:53:38.533Z,18.52
2022-10-29T03:56:11.155Z,19.90
2022-10-29T03:58:40.284Z,21.55
2022-10-29T04:01:11.357Z,23.70
2022-10-29T04:03:42.413Z,22.08
2022-10-29T04:06:13.945Z,21.70
2022-10-29T04:08:43.668Z,24.50
2022-10-29T04:11:15.459Z,24.45
2022-10-29T04:13:44.626Z,23.20
2022-10-29T04:16:13.686Z,27.67
2022-10-29T04:18:42.686Z,25.40
2022-10-29T04:29:40.274Z,22.38
2022-10-29T04:32:09.287Z,24.98
2022-10-29T04:34:38.490Z,25.40
2022-10-29T04:37:08.002Z,26.05
2022-10-29T04:39:37.159Z,22.70
2022-10-29T04:42:07.686Z,25.25
2022-10-29T04:44:37.764Z,21.02
2022-10-29T04:47:06.892Z,21.67
2022-10-29T04:49:35.886Z,21.55
2022-10-29T04:52:05.850Z,22.50
2022-10-29T04:54:34.925Z,21.05
2022-10-29T04:57:04.009Z,25.13
2022-10-29T04:59:34.691Z,25.33
2022-10-29T05:02:03.887Z,25.83
2022-10-29T05:04:32.964Z,22.42
2022-10-29T05:07:02.074Z,24.08
2022-10-29T05:09:31.264Z,22.77
2022-10-29T05:12:00.350Z,24.45
2022-10-29T05:14:29.573Z,20.98
2022-10-29T05:17:00.084Z,21.33
2022-10-29T05:19:29.183Z,20.70
2022-10-29T05:21:58.285Z,20.10
2022-10-29T05:24:27.357Z,18.30
2022-10-29T05:26:56.402Z,17.40
2022-10-29T05:29:25.472Z,18.13
2022-10-29T05:31:55.499Z,22.55
2022-10-29T05:34:26.170Z,20.30
2022-10-29T05:36:55.315Z,23.08
2022-10-29T05:39:25.906Z,25.98
2022-10-29T05:41:55.008Z,30.38
2022-10-29T05:44:24.173Z,27.23
2022-10-29T05:46:53.235Z,21.65
2022-10-29T05:49:22.325Z,27.20
2022-10-29T05:51:53.179Z,23.25
2022-10-29T05:54:22.583Z,21.17
2022-10-29T05:56:51.627Z,24.23
2022-10-29T05:59:20.694Z,20.15
2022-10-29T06:01:49.883Z,24.08
2022-10-29T06:04:19.022Z,24.48
2022-10-29T06:06:48.148Z,26.23
2022-10-29T06:09:18.814Z,27.67
2022-10-29T06:11:47.990Z,24.85
2022-10-29T06:14:17.231Z,24.10
2022-10-29T06:16:47.404Z,26.27
2022-10-29T06:19:16.670Z,23.55
2022-10-29T06:21:45.755Z,22.98
2022-10-29T06:24:14.784Z,20.50
2022-10-29T06:26:45.307Z,20.50
2022-10-29T06:29:14.464Z,19.92
2022-10-29T06:31:43.486Z,18.75
2022-10-29T06:34:13.633Z,17.50
2022-10-29T06:36:42.809Z,15.45
2022-10-29T06:39:11.889Z,15.48
2022-10-29T06:41:40.955Z,15.40
2022-10-29T06:44:11.453Z,14.15
2022-10-29T06:46:41.649Z,19.45
2022-10-29T06:49:10.931Z,19.40
2022-10-29T06:51:41.452Z,24.27
2022-10-29T06:54:10.665Z,20.55
2022-10-29T06:56:41.172Z,22.85
2022-10-29T06:59:11.866Z,23.50
2022-10-29T07:01:41.052Z,20.85
2022-10-29T07:04:10.257Z,20.45
2022-10-29T07:06:39.498Z,19.77
2022-10-29T07:09:09.870Z,19.30
2022-10-29T07:11:39.087Z,18.50
2022-10-29T07:14:09.958Z,17.55
2022-10-29T07:16:40.510Z,17.02
2022-10-29T07:19:09.786Z,16.15
2022-10-29T07:21:38.805Z,15.55
2022-10-29T07:24:09.111Z,19.08
2022-10-29T07:26:38.625Z,18.73
2022-10-29T07:29:07.646Z,17.95
2022-10-29T07:31:36.681Z,18.58
2022-10-29T07:34:07.190Z,17.58
2022-10-29T07:36:36.247Z,18.45
2022-10-29T07:39:07.408Z,18.17
2022-10-29T07:41:36.496Z,16.75
2022-10-29T07:44:05.530Z,16.65
2022-10-29T07:46:34.584Z,16.73
2022-10-29T07:49:03.748Z,17.33
2022-10-29T07:51:34.323Z,16.13
2022-10-29T07:54:03.528Z,15.88
2022-10-29T07:56:32.617Z,15.45
2022-10-29T07:59:01.682Z,15.32
2022-10-29T08:01:30.763Z,15.35
2022-10-29T08:03:59.930Z,13.90
2022-10-29T08:06:28.953Z,14.15
2022-10-29T08:09:00.047Z,13.43
2022-10-29T08:11:29.131Z,13.30
2022-10-29T08:13:58.137Z,13.32
2022-10-29T08:16:27.335Z,12.75
2022-10-29T08:18:56.403Z,13.60
2022-10-29T08:21:25.780Z,14.65
2022-10-29T08:23:54.793Z,13.52
2022-10-29T08:26:25.222Z,13.35
2022-10-29T08:28:54.240Z,14.73
2022-10-29T08:31:23.275Z,13.65
2022-10-29T08:33:52.319Z,14.95
2022-10-29T08:36:21.403Z,13.52
2022-10-29T08:38:50.458Z,16.83
2022-10-29T08:41:39.977Z,15.85
2022-10-29T08:45:07.976Z,15.95
2022-10-29T08:47:55.249Z,17.25
2022-10-29T08:50:29.933Z,17.35
2022-10-29T08:53:24.558Z,15.02
2022-10-29T08:55:49.084Z,15.40
2022-10-29T08:58:32.089Z,14.43
2022-10-29T09:01:01.507Z,13.40
2022-10-29T09:03:31.059Z,14.00
2022-10-29T09:06:10.771Z,14.38
2022-10-29T09:09:04.638Z,15.13
2022-10-29T09:11:55.439Z,15.23
2022-10-29T09:14:46.071Z,15.15
2022-10-29T09:17:29.327Z,15.60
2022-10-29T09:20:24.340Z,14.50
2022-10-29T09:23:03.747Z,14.07
2022-10-29T09:25:39.534Z,15.35
2022-10-29T09:28:25.934Z,15.77
2022-10-29T09:31:08.491Z,14.98
2022-10-29T09:33:40.046Z,14.40
2022-10-29T09:36:17.511Z,15.35
2022-10-29T09:41:25.718Z,15.45
2022-10-29T09:44:02.499Z,15.73
2022-10-29T09:46:42.458Z,15.05
2022-10-29T09:49:37.856Z,14.20
2022-10-29T09:52:12.182Z,14.60
2022-10-29T09:54:41.260Z,14.10
2022-10-29T09:57:19.953Z,14.40
2022-10-29T09:59:54.071Z,14.00
2022-10-29T10:02:34.151Z,14.30
2022-10-29T10:05:14.490Z,14.73
2022-10-29T10:07:43.691Z,15.32
2022-10-29T10:10:25.215Z,14.43
2022-10-29T10:13:02.726Z,13.65
2022-10-29T10:15:34.845Z,14.88
2022-10-29T10:18:17.375Z,12.40
2022-10-29T10:20:49.854Z,13.80
2022-10-29T10:23:28.557Z,12.52
2022-10-29T10:26:03.901Z,12.23
2022-10-29T10:28:35.536Z,14.10
2022-10-29T10:31:15.021Z,13.05
2022-10-29T10:33:54.652Z,12.07
2022-10-29T10:36:26.963Z,12.70
2022-10-29T10:38:59.061Z,12.93
2022-10-29T10:41:31.958Z,13.98
2022-10-29T10:44:03.439Z,14.18
2022-10-29T10:46:36.882Z,14.20
2022-10-29T10:49:14.809Z,13.70
2022-10-29T10:51:46.765Z,14.68
2022-10-29T10:54:31.829Z,14.50
2022-10-29T10:57:03.749Z,13.15
2022-10-29T10:59:49.957Z,13.95
2022-10-29T11:02:27.407Z,13.82
2022-10-29T11:05:07.741Z,14.13
2022-10-29T11:07:41.698Z,14.27
2022-10-29T11:10:13.370Z,14.15
2022-10-29T11:12:48.925Z,14.30
2022-10-29T11:15:23.036Z,14.60
2022-10-29T11:17:59.486Z,14.02
2022-10-29T11:20:36.385Z,13.83
2022-10-29T11:23:27.851Z,15.30
2022-10-29T11:26:08.026Z,14.15
2022-10-29T11:28:42.123Z,14.85
2022-10-29T11:31:21.776Z,14.10
2022-10-29T11:34:01.731Z,14.20
2022-10-29T11:36:40.275Z,13.68
2022-10-29T11:39:17.207Z,14.45
2022-10-29T11:41:51.431Z,13.93
2022-10-29T11:44:21.855Z,12.68
2022-10-29T11:47:11.545Z,12.95
2022-10-29T11:50:00.488Z,13.02
2022-10-29T11:52:41.533Z,12.93
2022-10-29T11:55:27.542Z,13.27
2022-10-29T11:58:02.286Z,12.52
2022-10-29T12:00:57.515Z,12.52
2022-10-29T12:03:58.359Z,12.63
2022-10-29T12:06:40.476Z,12.45
2022-10-29T12:09:40.903Z,12.23
2022-10-29T12:12:17.285Z,11.57
2022-10-29T12:14:53.558Z,11.80
2022-10-29T12:17:29.012Z,10.48
2022-10-29T12:22:42.170Z,10.50
2022-10-29T12:25:40.085Z,10.27
2022-10-29T12:28:20.924Z,10.18
2022-10-29T12:31:07.781Z,9.60
2022-10-29T12:33:49.461Z,9.95
2022-10-29T12:36:29.814Z,10.10
2022-10-29T12:39:00.996Z,9.82
2022-10-29T12:41:38.243Z,9.00
2022-10-29T12:44:15.441Z,9.35
2022-10-29T12:46:54.435Z,9.43
2022-10-29T12:49:38.980Z,9.45
2022-10-29T12:52:17.704Z,9.85
2022-10-29T12:54:48.789Z,8.98
2022-10-29T12:57:33.458Z,8.95
2022-10-29T13:00:35.109Z,8.95
2022-10-29T13:03:04.604Z,8.70
2022-10-29T13:05:43.674Z,8.50
2022-10-29T13:08:41.768Z,8.63
2022-10-29T13:11:25.407Z,7.93
2022-10-29T13:13:59.892Z,7.22
2022-10-29T13:16:31.744Z,7.18
2022-10-29T13:19:24.338Z,7.20
2022-10-29T13:22:35.422Z,7.22
2022-10-29T13:25:48.709Z,6.90
2022-10-29T13:28:50.575Z,6.60
2022-10-29T13:31:49.000Z,7.47
2022-10-29T13:38:14.001Z,7.20
2022-10-29T13:41:15.272Z,7.30
2022-10-29T13:43:54.736Z,7.00
2022-10-29T13:46:44.958Z,7.60
2022-10-29T13:49:22.127Z,6.57
2022-10-29T13:51:59.537Z,7.47
2022-10-29T13:54:38.771Z,7.10
2022-10-29T13:57:20.275Z,6.70
2022-10-29T13:59:58.823Z,6.47
2022-10-29T14:02:39.513Z,7.57
2022-10-29T14:05:20.730Z,6.65
2022-10-29T14:07:56.531Z,7.57
2022-10-29T14:13:08.662Z,7.38
2022-10-29T14:15:39.167Z,7.25
2022-10-29T14:18:25.064Z,6.85
2022-10-29T14:21:00.755Z,7.03
2022-10-29T14:23:32.291Z,7.45
2022-10-29T14:26:04.121Z,7.32
2022-10-29T14:28:34.876Z,7.45
2022-10-29T14:31:07.138Z,7.22
2022-10-29T14:33:39.124Z,6.88
2022-10-29T14:36:17.736Z,7.38
2022-10-29T14:38:51.270Z,7.28
2022-10-29T14:41:21.537Z,8.00
2022-10-29T14:43:57.189Z,8.07
2022-10-29T14:46:30.096Z,7.63
2022-10-29T14:49:06.371Z,7.47
2022-10-29T14:51:41.755Z,8.93
2022-10-29T14:54:20.807Z,7.03
2022-10-29T14:56:53.868Z,8.07
2022-10-29T14:59:29.165Z,7.85
2022-10-29T15:02:17.292Z,7.72
2022-10-29T15:04:56.748Z,7.60
2022-10-29T15:07:35.465Z,8.90
2022-10-29T15:10:29.783Z,9.73
2022-10-29T15:12:59.286Z,9.93
2022-10-29T15:15:31.144Z,25.42
2022-10-29T15:18:05.801Z,21.65
2022-10-29T15:20:46.138Z,18.27
2022-10-29T15:23:24.725Z,17.30
2022-10-29T15:25:59.377Z,11.88
2022-10-29T15:28:32.360Z,11.40
2022-10-29T15:31:20.476Z,10.63
2022-10-29T15:33:53.177Z,14.05
2022-10-29T15:36:22.341Z,13.32
2022-10-29T15:39:53.377Z,11.07
2022-10-29T15:42:25.423Z,8.82
2022-10-29T15:45:17.149Z,8.18
2022-10-29T15:47:49.507Z,8.63
2022-10-29T15:50:22.784Z,7.93
2022-10-29T15:52:58.912Z,9.48
2022-10-29T15:55:32.244Z,8.10
2022-10-29T15:58:06.075Z,8.40
2022-10-29T16:00:35.927Z,8.70
2022-10-29T16:03:15.594Z,8.13
2022-10-29T16:05:47.061Z,8.00
2022-10-29T16:08:28.568Z,9.25
2022-10-29T16:11:01.362Z,10.15
2022-10-29T16:13:31.950Z,12.13
2022-10-29T16:16:01.154Z,9.23
2022-10-29T16:18:30.312Z,10.27
2022-10-29T16:21:02.751Z,10.48
2022-10-29T16:23:33.206Z,10.82
2022-10-29T16:26:03.662Z,9.77
2022-10-29T16:28:32.983Z,9.77
2022-10-29T16:31:02.118Z,10.32
2022-10-29T16:33:31.129Z,12.02
2022-10-29T16:36:00.223Z,12.50
2022-10-29T16:38:29.307Z,13.00
2022-10-29T16:40:58.411Z,11.43
2022-10-29T16:43:28.837Z,10.80
2022-10-29T16:45:59.769Z,10.60
2022-10-29T16:48:31.735Z,11.30
2022-10-29T16:51:01.337Z,11.63
2022-10-29T16:53:30.483Z,13.07
2022-10-29T16:55:59.888Z,12.93
2022-10-29T16:58:30.478Z,13.80
2022-10-29T17:01:07.000Z,12.35
2022-10-29T17:03:36.201Z,10.87
2022-10-29T17:06:07.274Z,11.70
2022-10-29T17:08:38.113Z,10.93
2022-10-29T17:11:10.316Z,11.35
2022-10-29T17:13:40.888Z,11.27
2022-10-29T17:16:12.597Z,15.25
2022-10-29T17:18:41.834Z,13.98
2022-10-29T17:21:10.977Z,14.60
2022-10-29T17:23:40.131Z,14.68
2022-10-29T17:26:09.170Z,14.60
2022-10-29T17:28:39.338Z,14.25
2022-10-29T17:31:11.405Z,12.23
2022-10-29T17:33:40.590Z,12.27
2022-10-29T17:36:14.150Z,10.45
2022-10-29T17:38:44.398Z,11.23
2022-10-29T17:41:13.719Z,11.52
2022-10-29T17:43:42.839Z,12.95
2022-10-29T17:46:14.077Z,11.57
2022-10-29T17:48:43.165Z,11.77
2022-10-29T17:51:12.359Z,10.93
2022-10-29T17:53:41.410Z,10.48
2022-10-29T17:56:10.479Z,10.30
2022-10-29T17:58:39.770Z,11.18
2022-10-29T18:01:12.623Z,11.43
2022-10-29T18:03:42.437Z,11.18
2022-10-29T18:06:15.739Z,12.35
2022-10-29T18:08:45.369Z,15.73
2022-10-29T18:11:16.985Z,14.07
2022-10-29T18:13:46.899Z,14.57
2022-10-29T18:16:19.514Z,13.15
2022-10-29T18:19:01.392Z,12.52
2022-10-29T18:21:32.869Z,13.18
2022-10-29T18:24:02.304Z,13.57
2022-10-29T18:26:33.905Z,12.43
2022-10-29T18:29:06.294Z,11.98
2022-10-29T18:31:37.955Z,12.15
2022-10-29T18:34:09.189Z,10.40
2022-10-29T18:36:38.897Z,10.18
2022-10-29T18:39:08.565Z,10.95
2022-10-29T18:41:37.943Z,11.20
2022-10-29T18:44:07.032Z,10.25
2022-10-29T18:46:38.535Z,11.43
2022-10-29T18:49:07.719Z,10.52
2022-10-29T18:51:36.681Z,10.30
2022-10-29T18:54:06.599Z,11.25
2022-10-29T18:56:35.752Z,14.57
2022-10-29T18:59:04.955Z,15.15
2022-10-29T19:01:37.684Z,15.30
2022-10-29T19:04:11.807Z,13.35
2022-10-29T19:06:41.186Z,12.43
2022-10-29T19:09:13.572Z,12.43
2022-10-29T19:11:42.723Z,11.25
2022-10-29T19:14:14.751Z,12.00
2022-10-29T19:16:43.816Z,8.73
2022-10-29T19:19:17.081Z,9.52
2022-10-29T19:21:48.845Z,10.27
2022-10-29T19:24:18.109Z,10.23
2022-10-29T19:26:47.325Z,12.18
2022-10-29T19:29:16.555Z,12.55
2022-10-29T19:31:46.430Z,14.45
2022-10-29T19:34:17.691Z,14.02
2022-10-29T19:36:46.906Z,13.13
2022-10-29T19:39:15.984Z,11.93
2022-10-29T19:41:45.036Z,12.02
2022-10-29T19:44:14.055Z,12.90
2022-10-29T19:46:43.252Z,11.23
2022-10-29T19:49:12.298Z,10.02
2022-10-29T19:51:42.768Z,10.70
2022-10-29T19:54:11.847Z,11.05
2022-10-29T19:56:41.043Z,11.65
2022-10-29T19:59:10.291Z,10.27
2022-10-29T20:01:41.769Z,11.75
2022-10-29T20:04:11.208Z,12.05
2022-10-29T20:06:40.349Z,12.10
2022-10-29T20:09:11.272Z,12.57
2022-10-29T20:11:40.300Z,15.35
2022-10-29T20:14:09.397Z,15.68
2022-10-29T20:16:39.460Z,16.90
2022-10-29T20:19:09.061Z,14.18
2022-10-29T20:21:38.136Z,16.65
2022-10-29T20:24:07.754Z,16.13
2022-10-29T20:26:53.144Z,15.48
2022-10-29T20:29:22.150Z,14.05
2022-10-29T20:31:51.267Z,15.55
2022-10-29T20:34:20.268Z,13.77
2022-10-29T20:36:49.385Z,13.43
2022-10-29T20:39:20.152Z,11.45
2022-10-29T20:41:50.918Z,11.43
2022-10-29T20:44:19.981Z,11.65
2022-10-29T20:46:49.129Z,11.27
2022-10-29T20:49:18.127Z,10.65
2022-10-29T20:51:47.296Z,11.60
2022-10-29T20:54:16.534Z,13.48
2022-10-29T20:56:45.602Z,13.73
2022-10-29T20:59:16.009Z,14.27
2022-10-29T21:01:45.184Z,13.95
2022-10-29T21:04:14.730Z,14.27
2022-10-29T21:06:43.756Z,15.70
2022-10-29T21:09:13.007Z,17.77
2022-10-29T21:11:42.859Z,17.10
2022-10-29T21:14:12.025Z,22.02
2022-10-29T21:16:42.479Z,20.77
2022-10-29T21:19:11.998Z,22.58
2022-10-29T21:21:41.253Z,24.63
2022-10-29T21:24:10.313Z,26.63
2022-10-29T21:26:39.391Z,26.30
2022-10-29T21:29:08.507Z,28.08
2022-10-29T21:31:37.705Z,29.20
2022-10-29T21:34:08.120Z,31.35
2022-10-29T21:36:37.201Z,29.00
2022-10-29T21:39:06.250Z,27.23
2022-10-29T21:41:35.407Z,29.58
2022-10-29T21:44:04.575Z,33.35
2022-10-29T21:46:33.736Z,25.77
2022-10-29T21:49:02.982Z,26.60
2022-10-29T21:51:33.438Z,28.80
2022-10-29T21:54:02.622Z,32.60
2022-10-29T21:56:31.795Z,32.97
2022-10-29T21:59:01.131Z,34.83
2022-10-29T22:01:30.249Z,32.72
2022-10-29T22:03:59.406Z,35.72
2022-10-29T22:06:28.672Z,29.95
2022-10-29T22:09:01.098Z,30.45
2022-10-29T22:11:30.416Z,36.42
2022-10-29T22:13:59.578Z,26.60
2022-10-29T22:16:28.865Z,25.40
2022-10-29T22:18:57.899Z,23.42
2022-10-29T22:21:27.946Z,24.08
2022-10-29T22:23:59.451Z,21.17
2022-10-29T22:26:30.862Z,21.80
2022-10-29T22:28:59.897Z,20.38
2022-10-29T22:31:29.061Z,20.70
2022-10-29T22:33:58.171Z,22.00
2022-10-29T22:36:28.667Z,20.85
2022-10-29T22:39:01.319Z,18.15
2022-10-29T22:41:31.261Z,18.98
2022-10-29T22:44:01.222Z,18.13
2022-10-29T22:46:31.847Z,18.50
2022-10-29T22:49:02.515Z,18.73
2022-10-29T22:51:33.951Z,20.00
2022-10-29T22:54:05.177Z,20.67
2022-10-29T22:56:36.802Z,22.80
2022-10-29T22:59:07.067Z,22.02
2022-10-29T23:01:42.092Z,22.55
2022-10-29T23:04:15.760Z,20.38
2022-10-29T23:06:46.548Z,18.38
2022-10-29T23:09:16.963Z,19.10
2022-10-29T23:11:45.994Z,18.52
2022-10-29T23:14:15.259Z,18.52
2022-10-29T23:16:44.275Z,17.33
2022-10-29T23:19:13.437Z,17.33
2022-10-29T23:21:42.494Z,17.80
2022-10-29T23:24:11.902Z,17.55
2022-10-29T23:26:42.305Z,16.83
2022-10-29T23:29:11.332Z,19.20
2022-10-29T23:31:40.359Z,17.38
2022-10-29T23:34:12.936Z,19.58
2022-10-29T23:36:42.182Z,16.92
2022-10-29T23:39:12.493Z,19.50
2022-10-29T23:41:43.106Z,16.85
2022-10-29T23:44:12.229Z,16.70
2022-10-29T23:46:41.236Z,15.95
2022-10-29T23:49:10.700Z,16.10
2022-10-29T23:51:39.730Z,19.88
2022-10-29T23:54:08.953Z,21.83
2022-10-29T23:56:37.990Z,25.83
2022-10-29T23:59:08.620Z,29.55
